Aérodrome :
LOGIN :

S'inscrire | Disclaimer

   EN    FR    IT 

 










Légende :    VFR   VFR Marginal   IFR   IFR Intensif   IFR Très Intensif
Visi : 
Plafond : 
>= 8 km
>= 3000ft
5 à 8 km
1000 à 3000 ft
1500m à 5 km
500 à 1000 ft
800 à 1500m
200 à 500 ft
< 800m
< 200 ft
Symboles :   Orages  Brouillard  Fortes neiges  Fortes précipitations  Vent > 20 kt
SIGMETs :   Divers  Orages  Givrage  Turbulence  Onde Orograph.  Cendres Volcan.







- Altitude de l'aérodrome : 219 ft
- Code IATA : DNR
- Voir les cartes d'approche


LFRD - Dinard

DERNIER METAR :
  • 240430Z AUTO 02004KT 3300 BR OVC044 08/07 Q1029 TEMPO 0500 FG VV///

METARs EXPIRÉS :
  • 240400Z AUTO 02003KT 3300 BR OVC042 08/07 Q1029 TEMPO 0500 FG VV///
  • 240330Z AUTO 04003KT 2900 BR OVC043 08/07 Q1029 TEMPO 0500 FG VV///
  • 240300Z AUTO 05004KT 3200 BR BKN042 08/07 Q1029 TEMPO 0500 FG VV///
  • 240230Z AUTO 04006KT 3200 BR BKN042 07/07 Q1029 TEMPO 0500 FG VV///
  • 240200Z AUTO 04005KT 2900 BR BKN039 07/06 Q1029 TEMPO 0500 FG VV///

TAF AMD TAF LFRD
Valide du 24 à 04h jusqu'au 25 à 00h UTC


240423Z 2404/2424 VRB03KT 3000 BR BKN040
PROB40
TEMPO 2404/2410 BKN003
BECMG 2407/2409 9999 NSW
BECMG 2410/2412 01010KT
ATIS : +33 2 99 16 81 50
Pas de NOTAMs connus pour ce terrain.



MET'MAP, la Météo Aéronautique d'un coup d'oeil ! - Copyright ORBIFLY Décembre 2007 - Disclaimer

ORBIFLY MET'MAP TEAM :

Programmation & Développement : Alexandra Zaïnal
Conception & Développement : Baudouin d'Aumeries
Co-Programmation & Développement : Marc-Olivier Méhu
Soutien technique & logistique : Manuel Goepfert

Contact : metmap@orbifly.com




SOURCES & CREDITS :

   NOAA